createdAt,value
2022-12-04T00:01:28.180Z,47.22
2022-12-04T00:03:58.889Z,46.57
2022-12-04T00:06:27.724Z,49.00
2022-12-04T00:08:55.813Z,48.75
2022-12-04T00:11:28.869Z,49.78
2022-12-04T00:14:00.277Z,49.22
2022-12-04T00:16:32.040Z,49.25
2022-12-04T00:18:59.266Z,48.60
2022-12-04T00:21:26.499Z,49.33
2022-12-04T00:23:54.275Z,47.42
2022-12-04T00:26:25.368Z,46.78
2022-12-04T00:28:53.439Z,48.00
2022-12-04T00:31:25.033Z,47.50
2022-12-04T00:33:53.084Z,47.47
2022-12-04T00:36:24.071Z,48.95
2022-12-04T00:38:52.382Z,48.47
2022-12-04T00:41:25.067Z,48.15
2022-12-04T00:43:54.321Z,47.15
2022-12-04T00:46:22.748Z,48.72
2022-12-04T00:48:50.754Z,48.38
2022-12-04T00:51:24.836Z,47.75
2022-12-04T00:53:53.430Z,48.13
2022-12-04T00:56:25.975Z,48.85
2022-12-04T00:58:59.858Z,47.25
2022-12-04T01:01:29.086Z,47.95
2022-12-04T01:03:57.194Z,48.58
2022-12-04T01:06:32.321Z,46.47
2022-12-04T01:09:02.944Z,48.60
2022-12-04T01:11:31.129Z,48.80
2022-12-04T01:13:59.694Z,48.92
2022-12-04T01:16:31.774Z,46.67
2022-12-04T01:19:00.089Z,49.57
2022-12-04T01:21:27.658Z,48.45
2022-12-04T01:23:54.823Z,47.63
2022-12-04T01:26:21.991Z,47.85
2022-12-04T01:28:49.202Z,48.17
2022-12-04T01:31:19.737Z,48.92
2022-12-04T01:33:49.028Z,49.08
2022-12-04T01:36:23.223Z,49.92
2022-12-04T01:38:51.044Z,48.13
2022-12-04T01:41:27.515Z,49.83
2022-12-04T01:44:15.366Z,48.60
2022-12-04T01:46:53.421Z,49.15
2022-12-04T01:49:38.008Z,47.60
2022-12-04T01:52:13.791Z,49.38
2022-12-04T01:54:46.086Z,49.38
2022-12-04T01:57:20.017Z,50.83
2022-12-04T02:00:04.072Z,49.33
2022-12-04T02:02:41.472Z,48.60
2022-12-04T02:05:16.480Z,49.15
2022-12-04T02:07:48.877Z,48.58
2022-12-04T02:10:24.235Z,49.00
2022-12-04T02:13:11.930Z,48.45
2022-12-04T02:15:45.409Z,49.47
2022-12-04T02:18:53.771Z,49.72
2022-12-04T02:21:38.908Z,49.15
2022-12-04T02:24:17.841Z,49.28
2022-12-04T02:26:56.075Z,48.80
2022-12-04T02:29:37.697Z,48.75
2022-12-04T02:32:28.561Z,49.92
2022-12-04T02:35:04.104Z,48.22
2022-12-04T02:37:43.876Z,49.05
2022-12-04T02:40:31.570Z,48.42
2022-12-04T02:43:28.317Z,47.90
2022-12-04T02:46:30.867Z,47.05
2022-12-04T02:49:03.220Z,47.95
2022-12-04T02:51:37.268Z,48.58
2022-12-04T02:54:32.655Z,48.47
2022-12-04T02:57:04.751Z,50.08
2022-12-04T02:59:45.203Z,48.57
2022-12-04T03:02:25.188Z,48.17
2022-12-04T03:04:57.348Z,48.13
2022-12-04T03:07:39.993Z,48.50
2022-12-04T03:10:17.465Z,47.35
2022-12-04T03:12:54.635Z,46.92
2022-12-04T03:15:33.873Z,50.10
2022-12-04T03:18:09.265Z,48.90
2022-12-04T03:20:38.481Z,49.67
2022-12-04T03:23:22.401Z,48.75
2022-12-04T03:26:23.914Z,48.78
2022-12-04T03:29:26.396Z,48.58
2022-12-04T03:32:14.986Z,48.97
2022-12-04T03:35:02.901Z,48.90
2022-12-04T03:38:10.038Z,47.63
2022-12-04T03:41:18.124Z,48.97
2022-12-04T03:44:15.320Z,48.70
2022-12-04T03:46:57.963Z,48.03
2022-12-04T03:49:45.977Z,47.92
2022-12-04T03:52:33.131Z,46.75
2022-12-04T03:55:13.294Z,48.63
2022-12-04T03:57:45.339Z,47.33
2022-12-04T04:00:21.278Z,48.90
2022-12-04T04:02:58.263Z,48.47
2022-12-04T04:05:30.254Z,48.33
2022-12-04T04:08:24.875Z,47.53
2022-12-04T04:10:58.396Z,47.50
2022-12-04T04:13:57.221Z,48.38
2022-12-04T04:16:47.203Z,47.85
2022-12-04T04:19:38.648Z,48.33
2022-12-04T04:22:28.770Z,47.83
2022-12-04T04:25:11.724Z,47.70
2022-12-04T04:27:38.933Z,48.17
2022-12-04T04:30:09.415Z,48.63
2022-12-04T04:33:05.902Z,49.00
2022-12-04T04:36:03.519Z,47.65
2022-12-04T04:38:45.601Z,47.25
2022-12-04T04:41:28.397Z,48.90
2022-12-04T04:44:15.756Z,48.60
2022-12-04T04:46:52.724Z,48.65
2022-12-04T04:49:26.891Z,48.50
2022-12-04T04:51:55.244Z,47.72
2022-12-04T04:54:24.030Z,47.38
2022-12-04T04:56:51.259Z,47.80
2022-12-04T04:59:18.410Z,46.80
2022-12-04T05:01:47.060Z,47.45
2022-12-04T05:04:15.083Z,47.75
2022-12-04T05:06:42.344Z,47.78
2022-12-04T05:09:09.516Z,47.28
2022-12-04T05:11:36.761Z,47.20
2022-12-04T05:14:05.870Z,47.65
2022-12-04T05:16:33.250Z,46.42
2022-12-04T05:19:19.144Z,47.95
2022-12-04T05:21:46.282Z,45.13
2022-12-04T05:24:13.420Z,47.10
2022-12-04T05:26:40.586Z,47.15
2022-12-04T05:29:07.853Z,46.95
2022-12-04T05:31:35.080Z,45.92
2022-12-04T05:34:02.312Z,47.03
2022-12-04T05:36:29.460Z,47.30
2022-12-04T05:38:56.591Z,46.95
2022-12-04T05:41:24.129Z,48.58
2022-12-04T05:43:52.345Z,49.13
2022-12-04T05:46:19.540Z,45.38
2022-12-04T05:48:46.764Z,46.45
2022-12-04T05:51:14.037Z,47.08
2022-12-04T05:53:41.206Z,47.38
2022-12-04T05:56:08.876Z,47.60
2022-12-04T05:58:38.150Z,48.42
2022-12-04T06:01:15.820Z,45.35
2022-12-04T06:03:43.912Z,47.08
2022-12-04T06:06:24.117Z,49.35
2022-12-04T06:08:54.884Z,49.08
2022-12-04T06:11:27.460Z,48.25
2022-12-04T06:13:56.487Z,46.28
2022-12-04T06:16:28.165Z,46.80
2022-12-04T06:19:00.387Z,47.55
2022-12-04T06:21:32.091Z,48.75
2022-12-04T06:23:59.335Z,46.85
2022-12-04T06:26:27.577Z,48.67
2022-12-04T06:28:57.483Z,46.92
2022-12-04T06:31:27.546Z,48.28
2022-12-04T06:33:57.013Z,48.60
2022-12-04T06:36:25.349Z,49.20
2022-12-04T06:38:56.156Z,49.47
2022-12-04T06:41:26.235Z,47.80
2022-12-04T06:43:54.208Z,50.42
2022-12-04T06:46:28.450Z,50.15
2022-12-04T06:48:59.055Z,46.35
2022-12-04T06:51:33.508Z,49.63
2022-12-04T06:54:01.508Z,49.67
2022-12-04T06:56:33.046Z,50.35
2022-12-04T06:59:03.762Z,48.90
2022-12-04T07:01:34.817Z,49.42
2022-12-04T07:04:04.267Z,50.58
2022-12-04T07:06:38.249Z,49.53
2022-12-04T07:09:17.957Z,49.70
2022-12-04T07:11:46.022Z,50.60
2022-12-04T07:14:13.985Z,50.70
2022-12-04T07:16:42.879Z,51.60
2022-12-04T07:19:14.083Z,50.53
2022-12-04T07:21:42.426Z,49.75
2022-12-04T07:24:16.465Z,50.72
2022-12-04T07:26:44.307Z,51.92
2022-12-04T07:29:12.039Z,51.90
2022-12-04T07:31:39.338Z,52.53
2022-12-04T07:34:06.658Z,50.80
2022-12-04T07:36:33.835Z,51.40
2022-12-04T07:39:01.142Z,51.70
2022-12-04T07:41:28.351Z,54.63
2022-12-04T07:43:55.539Z,52.20
2022-12-04T07:46:27.011Z,52.58
2022-12-04T07:48:58.702Z,52.80
2022-12-04T07:51:29.317Z,52.85
2022-12-04T07:54:03.659Z,53.33
2022-12-04T07:56:33.214Z,54.50
2022-12-04T07:59:00.569Z,52.45
2022-12-04T08:01:28.146Z,53.60
2022-12-04T08:03:58.335Z,55.65
2022-12-04T08:06:28.486Z,55.10
2022-12-04T08:08:57.312Z,54.60
2022-12-04T08:11:27.264Z,55.42
2022-12-04T08:14:00.790Z,55.08
2022-12-04T08:16:30.542Z,55.85
2022-12-04T08:18:59.731Z,54.72
2022-12-04T08:21:30.116Z,56.35
2022-12-04T08:23:59.488Z,53.25
2022-12-04T08:26:29.917Z,56.03
2022-12-04T08:28:58.411Z,55.13
2022-12-04T08:31:28.607Z,57.10
2022-12-04T08:33:58.527Z,55.35
2022-12-04T08:36:26.608Z,54.97
2022-12-04T08:38:54.283Z,54.47
2022-12-04T08:41:24.588Z,54.78
2022-12-04T08:43:54.649Z,53.85
2022-12-04T08:46:24.926Z,57.22
2022-12-04T08:48:52.661Z,54.95
2022-12-04T08:51:29.759Z,55.03
2022-12-04T08:54:07.056Z,54.33
2022-12-04T08:56:37.840Z,54.53
2022-12-04T08:59:05.428Z,58.50
2022-12-04T09:01:32.642Z,56.92
2022-12-04T09:04:00.070Z,56.47
2022-12-04T09:06:27.350Z,58.08
2022-12-04T09:08:56.710Z,55.97
2022-12-04T09:11:27.355Z,55.67
2022-12-04T09:13:55.837Z,55.03
2022-12-04T09:16:25.528Z,57.17
2022-12-04T09:18:53.617Z,55.60
2022-12-04T09:21:23.133Z,56.97
2022-12-04T09:23:51.641Z,53.90
2022-12-04T09:26:30.550Z,54.88
2022-12-04T09:29:00.448Z,54.97
2022-12-04T09:31:28.037Z,55.20
2022-12-04T09:33:57.892Z,56.33
2022-12-04T09:36:25.213Z,55.97
2022-12-04T09:38:54.560Z,55.92
2022-12-04T09:42:04.052Z,55.45
2022-12-04T09:44:38.185Z,55.83
2022-12-04T09:47:21.515Z,55.10
2022-12-04T09:50:18.430Z,55.85
2022-12-04T09:53:08.866Z,55.03
2022-12-04T09:55:47.480Z,56.22
2022-12-04T09:58:23.477Z,56.47
2022-12-04T10:00:53.423Z,55.55
2022-12-04T10:03:28.155Z,55.58
2022-12-04T10:06:38.647Z,59.63
2022-12-04T10:09:25.164Z,55.63
2022-12-04T10:12:07.453Z,55.05
2022-12-04T10:15:08.798Z,53.60
2022-12-04T10:18:02.294Z,54.50
2022-12-04T10:21:09.639Z,55.40
2022-12-04T10:23:42.420Z,55.05
2022-12-04T10:26:18.302Z,55.83
2022-12-04T10:28:55.544Z,54.33
2022-12-04T10:31:26.009Z,56.30
2022-12-04T10:34:16.360Z,57.20
2022-12-04T10:36:50.636Z,55.75
2022-12-04T10:39:26.640Z,56.03
2022-12-04T10:42:39.209Z,55.53
2022-12-04T10:45:07.454Z,55.40
2022-12-04T10:47:34.944Z,54.22
2022-12-04T10:50:18.220Z,55.95
2022-12-04T10:52:45.833Z,53.67
2022-12-04T10:55:13.814Z,55.25
2022-12-04T10:57:46.803Z,54.20
2022-12-04T11:03:25.573Z,51.90
2022-12-04T11:06:00.470Z,53.50
2022-12-04T11:08:41.083Z,54.20
2022-12-04T11:11:13.198Z,56.78
2022-12-04T11:13:41.896Z,55.10
2022-12-04T11:16:33.790Z,57.15
2022-12-04T11:19:01.028Z,57.05
2022-12-04T11:21:31.936Z,57.20
2022-12-04T11:23:59.322Z,55.35
2022-12-04T11:26:35.201Z,56.70
2022-12-04T11:29:05.163Z,55.25
2022-12-04T11:31:33.065Z,56.83
2022-12-04T11:34:05.691Z,55.42
2022-12-04T11:36:42.569Z,57.60
2022-12-04T11:39:12.480Z,54.92
2022-12-04T11:41:40.042Z,56.60
2022-12-04T11:44:24.191Z,55.65
2022-12-04T11:46:54.986Z,58.47
2022-12-04T11:49:25.580Z,58.38
2022-12-04T11:52:29.218Z,59.40
2022-12-04T11:58:24.108Z,55.53
2022-12-04T12:01:20.351Z,59.53
2022-12-04T12:04:07.805Z,60.55
2022-12-04T12:06:39.305Z,58.80
2022-12-04T12:09:34.955Z,62.03
2022-12-04T12:12:27.224Z,60.22
2022-12-04T12:15:10.689Z,59.25
2022-12-04T12:18:05.661Z,60.13
2022-12-04T12:20:51.231Z,58.28
2022-12-04T12:24:13.690Z,59.55
2022-12-04T12:27:34.298Z,58.78
2022-12-04T12:30:09.655Z,59.65
2022-12-04T12:32:53.768Z,57.95
2022-12-04T12:35:46.939Z,60.30
2022-12-04T12:38:37.508Z,58.92
2022-12-04T12:41:11.572Z,59.88
2022-12-04T12:43:40.239Z,59.25
2022-12-04T12:46:48.955Z,59.85
2022-12-04T12:49:45.070Z,59.67
2022-12-04T12:52:31.378Z,58.10
2022-12-04T12:55:15.080Z,58.38
2022-12-04T12:57:48.881Z,58.10
2022-12-04T13:00:21.506Z,60.15
2022-12-04T13:03:00.628Z,63.80
2022-12-04T13:05:37.699Z,62.67
2022-12-04T13:08:25.788Z,61.00
2022-12-04T13:11:24.262Z,60.33
2022-12-04T13:14:02.396Z,59.70
2022-12-04T13:16:39.113Z,61.63
2022-12-04T13:19:27.226Z,61.75
2022-12-04T13:22:58.619Z,59.75
2022-12-04T13:25:56.725Z,61.28
2022-12-04T13:28:46.853Z,62.53
2022-12-04T13:32:25.614Z,58.63
2022-12-04T13:35:26.512Z,54.78
2022-12-04T13:38:33.546Z,58.17
2022-12-04T13:41:06.904Z,58.88
2022-12-04T13:43:48.290Z,57.63
2022-12-04T13:46:32.286Z,58.78
2022-12-04T13:49:25.684Z,59.25
2022-12-04T13:51:54.628Z,59.15
2022-12-04T13:54:30.738Z,58.78
2022-12-04T13:57:20.145Z,59.80
2022-12-04T13:59:49.019Z,57.65
2022-12-04T14:02:35.917Z,58.05
2022-12-04T14:05:11.845Z,55.72
2022-12-04T14:07:45.696Z,58.83
2022-12-04T14:10:15.776Z,60.42
2022-12-04T14:12:57.225Z,58.70
2022-12-04T14:15:28.969Z,58.65
2022-12-04T14:18:29.556Z,59.20
2022-12-04T14:21:05.312Z,58.17
2022-12-04T14:23:39.542Z,59.25
2022-12-04T14:27:03.160Z,59.70
2022-12-04T14:32:25.985Z,56.47
2022-12-04T14:34:54.569Z,56.42
2022-12-04T14:37:32.714Z,59.25
2022-12-04T14:40:02.787Z,60.10
2022-12-04T14:42:38.954Z,57.42
2022-12-04T14:45:23.852Z,58.25
2022-12-04T14:48:13.159Z,56.47
2022-12-04T14:51:14.731Z,58.30
2022-12-04T14:53:52.784Z,60.95
2022-12-04T14:56:50.888Z,58.85
2022-12-04T14:59:27.918Z,59.13
2022-12-04T15:01:55.949Z,59.13
2022-12-04T15:04:28.202Z,58.40
2022-12-04T15:07:00.177Z,59.15
2022-12-04T15:09:47.643Z,57.17
2022-12-04T15:12:35.036Z,59.35
2022-12-04T15:15:24.794Z,58.03
2022-12-04T15:18:13.851Z,58.78
2022-12-04T15:20:49.975Z,58.50
2022-12-04T15:23:29.131Z,58.30
2022-12-04T15:26:00.510Z,58.28
2022-12-04T15:28:44.350Z,58.35
2022-12-04T15:31:22.243Z,55.65
2022-12-04T15:33:56.260Z,58.83
2022-12-04T15:36:41.640Z,57.72
2022-12-04T15:39:18.837Z,55.60
2022-12-04T15:41:46.197Z,56.42
2022-12-04T15:44:30.083Z,56.38
2022-12-04T15:47:01.535Z,58.17
2022-12-04T15:49:33.397Z,59.30
2022-12-04T15:52:19.177Z,55.83
2022-12-04T15:54:56.532Z,55.00
2022-12-04T15:57:31.108Z,56.35
2022-12-04T16:00:02.688Z,55.20
2022-12-04T16:02:39.696Z,55.03
2022-12-04T16:05:21.801Z,56.17
2022-12-04T16:08:02.225Z,56.30
2022-12-04T16:10:35.049Z,55.38
2022-12-04T16:13:05.349Z,55.45
2022-12-04T16:15:41.922Z,56.95
2022-12-04T16:18:14.186Z,56.40
2022-12-04T16:20:41.631Z,54.33
2022-12-04T16:23:09.532Z,54.63
2022-12-04T16:25:37.051Z,56.88
2022-12-04T16:28:04.568Z,56.58
2022-12-04T16:30:34.779Z,55.75
2022-12-04T16:33:02.245Z,54.70
2022-12-04T16:35:31.439Z,57.35
2022-12-04T16:37:58.590Z,57.88
2022-12-04T16:40:25.818Z,56.92
2022-12-04T16:42:53.459Z,57.78
2022-12-04T16:45:31.431Z,56.67
2022-12-04T16:47:58.667Z,56.83
2022-12-04T16:50:27.694Z,58.92
2022-12-04T16:52:55.631Z,58.67
2022-12-04T16:55:39.212Z,58.03
2022-12-04T16:58:08.141Z,56.55
2022-12-04T17:00:36.486Z,57.25
2022-12-04T17:03:04.344Z,55.40
2022-12-04T17:05:35.640Z,56.13
2022-12-04T17:08:02.969Z,57.10
2022-12-04T17:10:30.261Z,56.88
2022-12-04T17:12:57.520Z,56.70
2022-12-04T17:15:24.817Z,59.22
2022-12-04T17:17:52.022Z,60.42
2022-12-04T17:20:21.141Z,57.33
2022-12-04T17:22:49.218Z,57.58
2022-12-04T17:25:18.120Z,56.45
2022-12-04T17:27:45.768Z,56.72
2022-12-04T17:30:13.948Z,60.05
2022-12-04T17:32:41.140Z,59.80
2022-12-04T17:35:13.229Z,54.58
2022-12-04T17:37:40.508Z,55.60
2022-12-04T17:40:10.634Z,58.20
2022-12-04T17:42:37.790Z,56.80
2022-12-04T17:45:05.515Z,55.20
2022-12-04T17:47:35.661Z,58.38
2022-12-04T17:50:05.878Z,58.35
2022-12-04T17:52:33.672Z,55.47
2022-12-04T17:55:00.884Z,55.20
2022-12-04T17:57:28.124Z,57.17
2022-12-04T17:59:55.386Z,57.72
2022-12-04T18:02:22.690Z,56.72
2022-12-04T18:04:49.906Z,57.47
2022-12-04T18:07:17.152Z,57.50
2022-12-04T18:09:44.325Z,56.92
2022-12-04T18:12:12.171Z,54.28
2022-12-04T18:14:39.443Z,55.05
2022-12-04T18:17:06.655Z,57.35
2022-12-04T18:19:33.965Z,56.60
2022-12-04T18:22:01.367Z,56.28
2022-12-04T18:24:28.607Z,58.28
2022-12-04T18:26:55.934Z,58.85
2022-12-04T18:29:26.549Z,55.72
2022-12-04T18:31:54.423Z,56.75
2022-12-04T18:34:22.255Z,55.30
2022-12-04T18:36:49.984Z,54.20
2022-12-04T18:39:21.760Z,54.65
2022-12-04T18:41:49.695Z,53.85
2022-12-04T18:44:18.106Z,55.28
2022-12-04T18:46:45.574Z,54.40
2022-12-04T18:49:12.905Z,55.97
2022-12-04T18:51:49.539Z,54.95
2022-12-04T18:54:23.413Z,58.28
2022-12-04T18:56:51.863Z,54.88
2022-12-04T18:59:26.402Z,54.92
2022-12-04T19:01:54.625Z,54.10
2022-12-04T19:04:24.805Z,54.97
2022-12-04T19:06:55.818Z,54.80
2022-12-04T19:10:09.949Z,53.85
2022-12-04T19:12:14.825Z,53.47
2022-12-04T19:14:42.141Z,53.38
2022-12-04T19:17:09.446Z,50.88
2022-12-04T19:19:36.612Z,54.42
2022-12-04T19:22:04.045Z,54.58
2022-12-04T19:24:31.638Z,53.13
2022-12-04T19:26:58.891Z,52.22
2022-12-04T19:29:26.115Z,53.88
2022-12-04T19:31:58.862Z,53.67
2022-12-04T19:34:26.767Z,54.47
2022-12-04T19:36:54.896Z,52.55
2022-12-04T19:39:22.468Z,52.92
2022-12-04T19:41:49.786Z,49.97
2022-12-04T19:44:47.214Z,54.92
2022-12-04T19:47:04.361Z,53.75
2022-12-04T19:49:31.628Z,53.10
2022-12-04T19:51:58.802Z,53.72
2022-12-04T19:54:25.999Z,54.13
2022-12-04T19:56:53.331Z,52.22
2022-12-04T19:59:20.932Z,53.42
2022-12-04T20:01:48.355Z,51.72
2022-12-04T20:04:15.618Z,54.50
2022-12-04T20:06:45.968Z,52.60
2022-12-04T20:09:20.412Z,54.92
2022-12-04T20:11:48.406Z,53.13
2022-12-04T20:14:15.744Z,53.15
2022-12-04T20:16:43.087Z,50.03
2022-12-04T20:19:15.749Z,55.58
2022-12-04T20:21:44.692Z,56.38
2022-12-04T20:24:15.631Z,55.58
2022-12-04T20:26:44.824Z,53.70
2022-12-04T20:29:15.621Z,52.15
2022-12-04T20:31:46.192Z,53.42
2022-12-04T20:34:17.756Z,54.72
2022-12-04T20:36:47.817Z,53.10
2022-12-04T20:39:17.568Z,56.28
2022-12-04T20:41:46.297Z,53.45
2022-12-04T20:44:18.492Z,55.50
2022-12-04T20:46:47.022Z,41.80
2022-12-04T20:49:21.916Z,55.20
2022-12-04T20:51:52.120Z,57.20
2022-12-04T20:54:22.116Z,54.58
2022-12-04T20:56:52.843Z,54.28
2022-12-04T20:59:23.064Z,54.05
2022-12-04T21:01:51.785Z,51.45
2022-12-04T21:04:19.623Z,54.42
2022-12-04T21:06:47.109Z,53.38
2022-12-04T21:09:21.908Z,52.25
2022-12-04T21:11:55.144Z,52.83
2022-12-04T21:14:46.036Z,54.78
2022-12-04T21:17:18.882Z,54.15
2022-12-04T21:19:49.118Z,52.33
2022-12-04T21:22:19.088Z,54.92
2022-12-04T21:24:46.468Z,53.63
2022-12-04T21:27:20.459Z,53.70
2022-12-04T21:29:49.163Z,54.20
2022-12-04T21:32:17.637Z,52.10
2022-12-04T21:34:45.218Z,53.28
2022-12-04T21:37:12.551Z,52.97
2022-12-04T21:39:39.816Z,51.90
2022-12-04T21:42:25.675Z,51.80
2022-12-04T21:44:52.836Z,52.72
2022-12-04T21:47:20.083Z,53.78
2022-12-04T21:49:47.641Z,53.70
2022-12-04T21:52:19.216Z,52.80
2022-12-04T21:54:52.008Z,51.92
2022-12-04T21:57:20.737Z,52.67
2022-12-04T21:59:48.347Z,51.65
2022-12-04T22:02:15.815Z,51.92
2022-12-04T22:04:43.110Z,51.95
2022-12-04T22:07:11.136Z,51.85
2022-12-04T22:09:39.183Z,52.17
2022-12-04T22:12:26.471Z,52.33
2022-12-04T22:14:54.194Z,50.85
2022-12-04T22:17:21.340Z,51.13
2022-12-04T22:19:48.465Z,50.17
2022-12-04T22:22:15.615Z,46.83
2022-12-04T22:24:42.788Z,50.75
2022-12-04T22:27:14.756Z,49.75
2022-12-04T22:29:50.404Z,36.60
2022-12-04T22:32:19.881Z,49.80
2022-12-04T22:34:50.245Z,48.63
2022-12-04T22:37:17.803Z,48.20
2022-12-04T22:39:44.965Z,48.60
2022-12-04T22:42:12.150Z,48.05
2022-12-04T22:44:39.316Z,47.03
2022-12-04T22:47:06.521Z,50.67
2022-12-04T22:49:33.794Z,48.25
2022-12-04T22:52:00.992Z,50.30
2022-12-04T22:54:28.139Z,48.45
2022-12-04T22:56:55.332Z,48.60
2022-12-04T22:59:22.527Z,48.75
2022-12-04T23:01:49.708Z,48.05
2022-12-04T23:04:17.003Z,49.88
2022-12-04T23:06:44.181Z,47.75
2022-12-04T23:09:17.614Z,47.88
2022-12-04T23:11:45.296Z,48.17
2022-12-04T23:14:15.337Z,46.95
2022-12-04T23:16:43.130Z,47.33
2022-12-04T23:19:18.157Z,45.20
2022-12-04T23:21:47.907Z,45.47
2022-12-04T23:24:17.096Z,46.78
2022-12-04T23:26:46.638Z,46.00
2022-12-04T23:29:36.808Z,46.08
2022-12-04T23:32:01.842Z,45.75
2022-12-04T23:34:29.022Z,48.33
2022-12-04T23:36:56.215Z,45.35
2022-12-04T23:39:23.375Z,46.28
2022-12-04T23:41:50.572Z,44.63
2022-12-04T23:44:17.710Z,48.00
2022-12-04T23:46:45.302Z,45.97
2022-12-04T23:49:12.516Z,46.90
2022-12-04T23:51:39.683Z,47.05
2022-12-04T23:54:06.914Z,47.28
2022-12-04T23:56:34.207Z,46.92
2022-12-04T23:59:01.430Z,45.03
